Time;durP1;ratioP1;P1;durP2;ratioP2;P2;SDS_P1;SDS_P2;PMS_P1;PMS_P2;Temp;Humidity;BMP_temperature;BMP_pressure;BME280_temperature;BME280_humidity;BME280_pressure;Samples;Min_cycle;Max_cycle;Signal;HPM_P1;HPM_P2
2022/08/09 17:10:15;;;;;;;;;;;34.50;49.70;33.90;99584.00;;;;353393;27;75964;-86
2022/08/09 17:10:27;;;;;;;;;;;34.40;49.70;33.90;99582.00;;;;351731;27;83606;-83
2022/08/09 17:10:40;;;;;;;;;;;34.40;49.90;34.00;99588.00;;;;346754;28;84926;-83
2022/08/09 17:10:53;;;;;;;;;;;34.40;49.90;33.90;99575.00;;;;346015;28;83392;-83
2022/08/09 17:11:06;;;;;;;;;;;34.40;50.10;33.90;99575.00;;;;345620;28;85382;-83
2022/08/09 17:11:21;;;;;;;;;;;34.30;50.00;33.80;99574.00;;;;345540;28;83408;-83
2022/08/09 17:11:43;;;;;;;;;;;34.30;50.20;33.80;99573.00;;;;345874;28;85040;-83
2022/08/09 17:12:02;;;;;;;;;;;34.30;50.50;33.80;99574.00;;;;345881;28;83152;-82
2022/08/09 17:12:18;;;;;;;;;;;34.30;50.50;33.90;99579.00;;;;345783;28;86609;-82
2022/08/09 17:12:30;;;;;;;;;;;34.20;50.60;33.90;99573.00;;;;345312;28;83367;-83
2022/08/09 17:12:43;;;;;;;;;;;34.20;50.70;33.90;99577.00;;;;344765;28;84511;-83
2022/08/09 17:12:57;;;;;;;;;;;34.20;50.50;33.90;99575.00;;;;346990;28;82425;-82
2022/08/09 17:13:09;;;;;;;;;;;34.20;50.30;33.90;99574.00;;;;347186;28;83714;-83
2022/08/09 17:13:21;;;;;;;;;;;34.20;50.30;33.80;99573.00;;;;348043;27;82538;-83
2022/08/09 17:13:33;;;;;;;;;;;34.20;50.80;33.90;99579.00;;;;348495;27;85104;-83
2022/08/09 17:13:45;;;;;;;;;;;34.20;50.30;34.00;99581.00;;;;345362;28;83590;-85
2022/08/09 17:14:12;;;;;;;;;;;34.30;50.20;34.00;99584.00;;;;347554;27;85810;-85
2022/08/09 17:14:38;;;;;;;;;;;34.20;50.20;34.00;99584.00;;;;347090;28;83332;-85
2022/08/09 17:14:58;;;;;;;;;;;34.30;50.20;34.00;99583.00;;;;345763;28;84190;-85
2022/08/09 17:15:11;;;;;;;;;;;34.30;50.10;34.00;99578.00;;;;346203;27;82543;-85
2022/08/09 17:15:43;;;;;;;;;;;34.30;50.20;34.00;99583.00;;;;345072;28;87489;-85
2022/08/09 17:16:12;;;;;;;;;;;34.30;50.50;34.00;99580.00;;;;345693;28;83286;-85
2022/08/09 17:16:24;;;;;;;;;;;34.30;50.60;34.00;99583.00;;;;345748;28;84999;-85
2022/08/09 17:16:38;;;;;;;;;;;34.30;50.60;34.00;99578.00;;;;347103;28;82433;-83
2022/08/09 17:16:50;;;;;;;;;;;34.30;50.50;34.00;99585.00;;;;348123;27;85119;-83
2022/08/09 17:17:02;;;;;;;;;;;34.30;50.60;34.00;99585.00;;;;348491;27;83174;-83
2022/08/09 17:17:23;;;;;;;;;;;34.30;50.70;34.10;99586.00;;;;347049;28;85012;-82
2022/08/09 17:17:39;;;;;;;;;;;34.30;50.50;34.10;99582.00;;;;347163;28;83410;-83
2022/08/09 17:18:03;;;;;;;;;;;34.30;50.40;34.10;99579.00;;;;347001;28;85309;-83
2022/08/09 17:18:14;;;;;;;;;;;34.30;50.50;34.10;99585.00;;;;345740;28;83438;-83
2022/08/09 17:18:37;;;;;;;;;;;34.30;50.50;34.10;99584.00;;;;345918;28;85357;-85
2022/08/09 17:18:49;;;;;;;;;;;34.30;50.50;34.00;99580.00;;;;346379;28;83416;-84
2022/08/09 17:19:01;;;;;;;;;;;34.30;50.70;34.10;99588.00;;;;347094;28;84856;-84
2022/08/09 17:19:15;;;;;;;;;;;34.40;50.90;33.90;99583.00;;;;347119;28;83451;-85
2022/08/09 17:19:33;;;;;;;;;;;34.40;50.80;33.80;99587.00;;;;347077;28;85133;-84
2022/08/09 17:20:05;;;;;;;;;;;34.30;50.40;34.10;99581.00;;;;345671;28;83690;-86
2022/08/09 17:20:37;;;;;;;;;;;34.30;50.50;34.00;99586.00;;;;345606;28;86690;-86
2022/08/09 17:21:03;;;;;;;;;;;34.30;50.40;34.00;99592.00;;;;347287;27;83294;-86
2022/08/09 17:21:18;;;;;;;;;;;34.30;50.50;34.00;99587.00;;;;350123;27;84502;-85
2022/08/09 17:21:30;;;;;;;;;;;34.30;50.70;34.00;99586.00;;;;350323;27;83324;-86
2022/08/09 17:21:44;;;;;;;;;;;34.30;50.50;34.10;99593.00;;;;349581;27;86845;-85
2022/08/09 17:21:57;;;;;;;;;;;34.30;50.50;34.10;99584.00;;;;348952;27;83614;-85
2022/08/09 17:22:09;;;;;;;;;;;34.30;50.60;34.00;99587.00;;;;347258;28;84810;-84
2022/08/09 17:22:21;;;;;;;;;;;34.30;50.70;34.00;99586.00;;;;348146;27;83258;-85
2022/08/09 17:22:46;;;;;;;;;;;34.30;50.50;34.00;99590.00;;;;348504;27;83878;-84
2022/08/09 17:23:03;;;;;;;;;;;34.30;50.50;34.00;99589.00;;;;347393;28;83489;-84
2022/08/09 17:23:15;;;;;;;;;;;34.30;50.30;34.10;99594.00;;;;345974;28;85110;-84
2022/08/09 17:23:27;;;;;;;;;;;34.30;50.40;34.10;99587.00;;;;345745;28;82164;-84
2022/08/09 17:23:59;;;;;;;;;;;34.30;50.40;34.00;99592.00;;;;348398;27;86350;-86
2022/08/09 17:24:30;;;;;;;;;;;34.40;50.80;34.00;99589.00;;;;348503;27;83459;-83
2022/08/09 17:24:42;;;;;;;;;;;34.30;50.30;34.00;99586.00;;;;347081;28;85263;-85
2022/08/09 17:25:08;;;;;;;;;;;34.30;50.30;34.00;99589.00;;;;344133;28;83491;-86
2022/08/09 17:25:22;;;;;;;;;;;34.40;50.50;34.10;99586.00;;;;345702;28;84994;-85
2022/08/09 17:25:34;;;;;;;;;;;34.40;50.30;34.10;99584.00;;;;347129;28;83466;-86
2022/08/09 17:25:46;;;;;;;;;;;34.40;50.40;34.10;99586.00;;;;346960;28;84625;-86
2022/08/09 17:26:04;;;;;;;;;;;34.30;50.40;33.90;99591.00;;;;345695;28;83364;-85
2022/08/09 17:26:18;;;;;;;;;;;34.40;50.60;33.60;99586.00;;;;345698;28;85258;-85
2022/08/09 17:26:48;;;;;;;;;;;34.30;50.50;33.70;99586.00;;;;344626;28;83533;-84
2022/08/09 17:27:04;;;;;;;;;;;34.20;50.50;33.70;99582.00;;;;345623;28;85383;-85
2022/08/09 17:27:26;;;;;;;;;;;34.20;50.60;33.80;99586.00;;;;348548;27;83397;-85
2022/08/09 17:27:40;;;;;;;;;;;34.20;50.60;33.90;99585.00;;;;345276;28;85213;-85
2022/08/09 17:28:05;;;;;;;;;;;34.20;50.60;33.70;99590.00;;;;345761;28;83424;-86
2022/08/09 17:28:16;;;;;;;;;;;34.20;50.90;33.60;99587.00;;;;347662;27;84053;-86
2022/08/09 17:28:28;;;;;;;;;;;34.20;50.90;33.70;99584.00;;;;347093;28;83276;-85
2022/08/09 17:28:40;;;;;;;;;;;34.10;50.80;33.60;99583.00;;;;347384;27;85353;-84
2022/08/09 17:28:52;;;;;;;;;;;34.10;51.00;33.60;99587.00;;;;347949;27;83491;-83
2022/08/09 17:29:04;;;;;;;;;;;34.10;51.00;33.70;99585.00;;;;348301;27;84473;-85
2022/08/09 17:29:30;;;;;;;;;;;34.10;51.10;33.70;99589.00;;;;348272;27;84779;-84
2022/08/09 17:29:51;;;;;;;;;;;34.10;51.20;33.70;99590.00;;;;346704;28;85201;-84
2022/08/09 17:30:04;;;;;;;;;;;34.10;51.20;33.70;99586.00;;;;347080;28;83318;-83
2022/08/09 17:30:24;;;;;;;;;;;34.10;51.10;33.70;99582.00;;;;344272;28;85112;-82
2022/08/09 17:30:38;;;;;;;;;;;34.10;51.10;33.70;99590.00;;;;344311;28;83322;-86
2022/08/09 17:30:58;;;;;;;;;;;34.10;51.00;33.70;99576.00;;;;346778;28;84702;-88
2022/08/09 17:31:09;;;;;;;;;;;34.10;50.90;33.70;99585.00;;;;346990;27;83276;-87
2022/08/09 17:31:26;;;;;;;;;;;34.10;51.00;33.70;99590.00;;;;348093;27;84309;-88
2022/08/09 17:31:49;;;;;;;;;;;34.00;51.00;33.70;99593.00;;;;345935;28;83334;-86
2022/08/09 17:32:01;;;;;;;;;;;34.00;50.90;33.70;99588.00;;;;345489;28;87085;-87
2022/08/09 17:32:13;;;;;;;;;;;34.00;51.00;33.80;99587.00;;;;345763;28;83118;-87
2022/08/09 17:32:26;;;;;;;;;;;34.00;51.00;33.70;99585.00;;;;347085;28;85163;-87
2022/08/09 17:32:48;;;;;;;;;;;34.00;51.00;33.80;99588.00;;;;345652;28;83311;-85
2022/08/09 17:33:02;;;;;;;;;;;34.10;51.00;33.80;99585.00;;;;344933;28;85721;-88
2022/08/09 17:33:33;;;;;;;;;;;34.00;51.20;33.70;99588.00;;;;347188;28;82374;-83
2022/08/09 17:33:49;;;;;;;;;;;34.10;51.30;33.70;99587.00;;;;347076;28;85056;-82
2022/08/09 17:34:04;;;;;;;;;;;34.00;51.20;33.60;99588.00;;;;345730;28;83488;-83
2022/08/09 17:34:35;;;;;;;;;;;34.00;51.30;33.60;99595.00;;;;347042;28;87837;-83
2022/08/09 17:35:07;;;;;;;;;;;34.00;51.30;33.50;99595.00;;;;347345;27;83466;-83
2022/08/09 17:35:23;;;;;;;;;;;33.90;51.10;33.50;99592.00;;;;348411;27;85304;-83
2022/08/09 17:35:35;;;;;;;;;;;34.00;51.20;33.60;99591.00;;;;348537;27;83213;-83
2022/08/09 17:35:54;;;;;;;;;;;34.00;51.30;33.50;99594.00;;;;347112;27;84063;-84
2022/08/09 17:36:06;;;;;;;;;;;33.90;51.10;33.60;99591.00;;;;347124;28;83303;-86
2022/08/09 17:36:26;;;;;;;;;;;33.90;51.10;33.50;99581.00;;;;344303;28;85040;-89
2022/08/09 17:36:38;;;;;;;;;;;33.90;51.00;33.50;99586.00;;;;344326;28;83135;-87
2022/08/09 17:37:03;;;;;;;;;;;33.90;51.00;33.40;99587.00;;;;347135;28;83627;-86
2022/08/09 17:37:15;;;;;;;;;;;33.90;51.10;33.50;99589.00;;;;348572;27;83125;-86
2022/08/09 17:37:30;;;;;;;;;;;33.90;51.10;33.60;99584.00;;;;349661;27;88173;-88
2022/08/09 17:38:03;;;;;;;;;;;33.80;51.10;33.50;99587.00;;;;349613;27;83558;-88
2022/08/09 17:38:35;;;;;;;;;;;33.80;51.00;33.60;99593.00;;;;347118;28;87486;-89
2022/08/09 17:38:51;;;;;;;;;;;33.80;51.10;33.70;99591.00;;;;345950;28;83535;-88
2022/08/09 17:39:10;;;;;;;;;;;33.80;51.20;33.60;99589.00;;;;347130;28;86139;-88
2022/08/09 17:39:22;;;;;;;;;;;33.80;51.00;33.70;99588.00;;;;345701;28;82523;-88
2022/08/09 17:39:37;;;;;;;;;;;33.80;51.20;33.60;99589.00;;;;347003;28;87300;-89
2022/08/09 17:40:05;;;;;;;;;;;33.80;51.60;33.60;99594.00;;;;345926;28;83663;-88
2022/08/09 17:40:28;;;;;;;;;;;33.80;51.20;33.60;99592.00;;;;346964;28;86435;-88
2022/08/09 17:40:40;;;;;;;;;;;33.80;51.20;33.60;99593.00;;;;347018;28;83368;-87
2022/08/09 17:40:51;;;;;;;;;;;33.80;51.10;33.60;99593.00;;;;346983;28;85230;-87
2022/08/09 17:41:05;;;;;;;;;;;33.80;51.00;33.50;99587.00;;;;344361;28;83516;-88
2022/08/09 17:41:17;;;;;;;;;;;33.80;51.00;33.40;99587.00;;;;345520;28;87525;-87
2022/08/09 17:41:30;;;;;;;;;;;33.80;51.00;33.50;99588.00;;;;345654;28;82587;-88
2022/08/09 17:41:49;;;;;;;;;;;33.80;51.10;33.50;99596.00;;;;345670;28;85165;-87
2022/08/09 17:42:01;;;;;;;;;;;33.70;50.90;33.50;99593.00;;;;348427;27;83421;-85
2022/08/09 17:42:15;;;;;;;;;;;33.70;51.00;33.50;99590.00;;;;348428;27;85469;-86
2022/08/09 17:42:47;;;;;;;;;;;33.80;50.90;33.50;99587.00;;;;347112;28;83396;-86
2022/08/09 17:43:06;;;;;;;;;;;33.70;51.20;33.50;99593.00;;;;347361;27;83535;-83
2022/08/09 17:43:38;;;;;;;;;;;33.70;51.30;33.60;99599.00;;;;344332;28;83454;-85
2022/08/09 17:43:50;;;;;;;;;;;33.70;51.20;33.60;99597.00;;;;345135;28;85268;-84
2022/08/09 17:44:22;;;;;;;;;;;33.80;51.20;33.60;99593.00;;;;347095;28;83423;-84
2022/08/09 17:44:53;;;;;;;;;;;33.80;51.10;33.50;99604.00;;;;345483;28;87763;-84
2022/08/09 17:45:05;;;;;;;;;;;33.70;51.10;33.60;99600.00;;;;345984;28;83315;-86
2022/08/09 17:45:34;;;;;;;;;;;33.80;51.30;33.60;99599.00;;;;346994;28;85277;-86
2022/08/09 17:46:06;;;;;;;;;;;33.80;51.10;33.60;99596.00;;;;348216;27;83676;-85
2022/08/09 17:46:20;;;;;;;;;;;33.80;51.20;33.40;99600.00;;;;347047;28;85059;-85
2022/08/09 17:46:44;;;;;;;;;;;33.80;51.30;33.50;99596.00;;;;348524;27;83435;-87
2022/08/09 17:47:08;;;;;;;;;;;33.70;51.10;33.50;99606.00;;;;347033;28;84330;-85
2022/08/09 17:47:21;;;;;;;;;;;33.80;51.00;33.50;99597.00;;;;345719;28;83220;-86
2022/08/09 17:47:34;;;;;;;;;;;33.70;50.90;33.60;99599.00;;;;348334;27;84947;-86
2022/08/09 17:48:05;;;;;;;;;;;33.80;51.00;33.50;99604.00;;;;345804;27;83584;-86
2022/08/09 17:48:20;;;;;;;;;;;33.80;51.10;33.50;99596.00;;;;345616;28;84088;-86
2022/08/09 17:48:40;;;;;;;;;;;33.70;51.00;33.40;99593.00;;;;344379;28;83444;-85
2022/08/09 17:49:04;;;;;;;;;;;33.70;51.10;33.40;99602.00;;;;346655;28;84100;-86
2022/08/09 17:49:20;;;;;;;;;;;33.70;51.10;33.40;99599.00;;;;345721;28;83347;-86
2022/08/09 17:49:31;;;;;;;;;;;33.70;51.30;33.40;99602.00;;;;346944;28;85256;-86
2022/08/09 17:49:45;;;;;;;;;;;33.70;51.30;33.40;99605.00;;;;347104;28;83328;-86
2022/08/09 17:50:08;;;;;;;;;;;33.70;51.10;33.50;99602.00;;;;346891;28;85116;-85
2022/08/09 17:50:28;;;;;;;;;;;33.70;51.30;33.40;99599.00;;;;347193;28;82411;-86
2022/08/09 17:50:47;;;;;;;;;;;33.70;51.30;33.40;99602.00;;;;347004;28;85170;-86
2022/08/09 17:51:10;;;;;;;;;;;33.70;51.00;33.40;99601.00;;;;345657;28;82542;-85
2022/08/09 17:51:30;;;;;;;;;;;33.70;50.90;33.50;99606.00;;;;345668;28;84923;-85
2022/08/09 17:51:44;;;;;;;;;;;33.70;51.20;33.40;99601.00;;;;345775;28;83347;-85
2022/08/09 17:51:57;;;;;;;;;;;33.70;51.30;33.50;99609.00;;;;345380;28;88010;-84
2022/08/09 17:52:08;;;;;;;;;;;33.60;51.20;33.40;99601.00;;;;346973;28;83340;-85
2022/08/09 17:52:32;;;;;;;;;;;33.60;51.30;33.30;99600.00;;;;348379;27;84404;-86
2022/08/09 17:52:45;;;;;;;;;;;33.60;51.10;33.40;99603.00;;;;348502;27;83363;-86
2022/08/09 17:53:02;;;;;;;;;;;33.60;51.00;33.40;99600.00;;;;348043;27;84946;-85
2022/08/09 17:53:30;;;;;;;;;;;33.60;51.00;33.40;99603.00;;;;346097;28;83391;-87
2022/08/09 17:53:42;;;;;;;;;;;33.60;51.00;33.40;99598.00;;;;346861;28;83967;-86
2022/08/09 17:54:04;;;;;;;;;;;33.60;51.00;33.40;99598.00;;;;349549;27;83435;-86
2022/08/09 17:54:16;;;;;;;;;;;33.60;50.80;33.40;99604.00;;;;349837;27;85145;-87
2022/08/09 17:54:35;;;;;;;;;;;33.60;50.90;33.40;99604.00;;;;349880;27;83384;-87
2022/08/09 17:54:47;;;;;;;;;;;33.60;50.90;33.40;99596.00;;;;348356;27;85242;-86
2022/08/09 17:55:00;;;;;;;;;;;33.60;51.00;33.40;99598.00;;;;349424;27;83367;-87
2022/08/09 17:55:12;;;;;;;;;;;33.70;50.90;33.40;99599.00;;;;346692;28;84688;-86
2022/08/09 17:55:24;;;;;;;;;;;33.60;50.80;33.40;99601.00;;;;348507;27;82339;-86
2022/08/09 17:55:56;;;;;;;;;;;33.60;50.80;33.40;99604.00;;;;348336;27;87198;-86
2022/08/09 17:56:16;;;;;;;;;;;33.60;50.80;33.30;99601.00;;;;347119;28;83433;-86
2022/08/09 17:56:29;;;;;;;;;;;33.60;50.80;33.30;99602.00;;;;346975;28;85198;-86
2022/08/09 17:56:46;;;;;;;;;;;33.60;50.80;33.30;99608.00;;;;348068;27;83363;-86
2022/08/09 17:56:58;;;;;;;;;;;33.60;51.20;33.30;99598.00;;;;349269;27;84684;-85
2022/08/09 17:57:10;;;;;;;;;;;33.60;51.10;33.30;99603.00;;;;348604;27;83353;-86
2022/08/09 17:57:41;;;;;;;;;;;33.60;51.10;33.30;99605.00;;;;351162;27;86952;-87
2022/08/09 17:58:16;;;;;;;;;;;33.60;51.00;33.40;99608.00;;;;349768;27;83470;-86
2022/08/09 17:58:28;;;;;;;;;;;33.60;51.10;33.40;99606.00;;;;349807;27;85161;-86
2022/08/09 17:58:39;;;;;;;;;;;33.60;51.00;33.30;99606.00;;;;347046;28;83222;-86
2022/08/09 17:58:58;;;;;;;;;;;33.60;51.00;33.30;99605.00;;;;346750;28;86269;-86
2022/08/09 17:59:10;;;;;;;;;;;33.60;51.20;33.30;99607.00;;;;347091;28;83219;-86
2022/08/09 17:59:27;;;;;;;;;;;33.60;51.30;33.30;99608.00;;;;346685;28;86722;-87
2022/08/09 17:59:49;;;;;;;;;;;33.60;51.50;33.30;99612.00;;;;347077;28;83272;-86
2022/08/09 18:00:18;;;;;;;;;;;33.60;51.50;33.40;99603.00;;;;346865;28;85126;-86
2022/08/09 18:00:46;;;;;;;;;;;33.50;51.10;33.30;99605.00;;;;348354;27;82505;-86
2022/08/09 18:00:59;;;;;;;;;;;33.50;51.40;33.30;99603.00;;;;347840;27;85122;-86
2022/08/09 18:01:10;;;;;;;;;;;33.50;51.50;33.30;99605.00;;;;348547;27;82358;-86
2022/08/09 18:01:34;;;;;;;;;;;33.50;51.20;33.30;99602.00;;;;347009;28;84368;-86
2022/08/09 18:02:05;;;;;;;;;;;33.50;51.30;33.20;99611.00;;;;345852;28;83521;-86
2022/08/09 18:02:30;;;;;;;;;;;33.50;51.20;33.20;99608.00;;;;347000;28;85118;-87
2022/08/09 18:02:46;;;;;;;;;;;33.50;51.30;33.20;99607.00;;;;347006;28;83381;-87
2022/08/09 18:03:09;;;;;;;;;;;33.40;51.10;33.20;99607.00;;;;346729;27;85184;-86
2022/08/09 18:03:21;;;;;;;;;;;33.50;51.20;33.20;99610.00;;;;347743;27;82795;-86
2022/08/09 18:03:33;;;;;;;;;;;33.50;51.20;33.20;99612.00;;;;347047;28;83684;-86
2022/08/09 18:03:45;;;;;;;;;;;33.50;51.20;33.30;99604.00;;;;347817;27;82359;-86
2022/08/09 18:03:57;;;;;;;;;;;33.40;51.10;33.30;99607.00;;;;348044;27;85370;-86
2022/08/09 18:04:09;;;;;;;;;;;33.50;51.20;33.20;99604.00;;;;348076;27;83518;-87
2022/08/09 18:04:23;;;;;;;;;;;33.40;51.00;33.20;99608.00;;;;346962;28;87370;-87
2022/08/09 18:04:34;;;;;;;;;;;33.40;51.10;33.20;99606.00;;;;347106;28;82160;-86
2022/08/09 18:04:46;;;;;;;;;;;33.40;51.10;33.10;99602.00;;;;347027;28;85013;-86
2022/08/09 18:04:59;;;;;;;;;;;33.40;51.10;33.10;99606.00;;;;348408;27;83202;-86
2022/08/09 18:05:11;;;;;;;;;;;33.40;51.00;33.10;99607.00;;;;345696;28;83725;-86
2022/08/09 18:05:23;;;;;;;;;;;33.40;51.00;33.10;99606.00;;;;346724;28;83377;-86
2022/08/09 18:05:54;;;;;;;;;;;33.40;50.90;33.10;99610.00;;;;346953;28;85459;-86
2022/08/09 18:06:06;;;;;;;;;;;33.40;51.10;33.20;99608.00;;;;347056;27;83376;-86
2022/08/09 18:06:37;;;;;;;;;;;33.40;51.10;33.20;99608.00;;;;345513;28;87291;-86
2022/08/09 18:06:53;;;;;;;;;;;33.40;51.30;33.10;99610.00;;;;345648;28;83433;-86
2022/08/09 18:07:06;;;;;;;;;;;33.30;51.20;33.10;99610.00;;;;346140;27;83977;-86
2022/08/09 18:07:19;;;;;;;;;;;33.30;51.40;33.10;99613.00;;;;348467;27;83510;-86
2022/08/09 18:07:34;;;;;;;;;;;33.30;51.30;33.10;99615.00;;;;346992;28;84786;-87
2022/08/09 18:07:46;;;;;;;;;;;33.30;51.20;33.10;99615.00;;;;347161;28;83013;-85
2022/08/09 18:08:03;;;;;;;;;;;33.30;51.30;33.00;99606.00;;;;346922;28;85449;-87
2022/08/09 18:08:21;;;;;;;;;;;33.30;51.10;33.10;99609.00;;;;347098;28;83408;-86
2022/08/09 18:08:39;;;;;;;;;;;33.30;51.10;33.00;99606.00;;;;346860;27;86695;-86
2022/08/09 18:08:52;;;;;;;;;;;33.30;51.00;33.00;99611.00;;;;347086;28;83433;-86
2022/08/09 18:09:06;;;;;;;;;;;33.30;50.80;33.00;99608.00;;;;347004;27;84893;-86
2022/08/09 18:09:19;;;;;;;;;;;33.30;50.90;32.90;99610.00;;;;345646;28;83256;-87
2022/08/09 18:09:31;;;;;;;;;;;33.30;50.80;33.00;99609.00;;;;346948;28;85309;-87
2022/08/09 18:09:52;;;;;;;;;;;33.30;50.80;32.90;99610.00;;;;347111;28;82472;-87
2022/08/09 18:10:15;;;;;;;;;;;33.30;50.80;32.90;99614.00;;;;348405;27;85048;-86
2022/08/09 18:10:28;;;;;;;;;;;33.30;50.90;32.90;99611.00;;;;348758;27;83340;-86
2022/08/09 18:10:43;;;;;;;;;;;33.30;51.00;32.90;99611.00;;;;349604;27;84549;-86
2022/08/09 18:11:12;;;;;;;;;;;33.30;50.90;32.90;99619.00;;;;348880;27;82543;-86
2022/08/09 18:11:27;;;;;;;;;;;33.20;50.80;32.90;99612.00;;;;346981;27;84686;-86
2022/08/09 18:11:39;;;;;;;;;;;33.20;51.00;32.90;99611.00;;;;347127;28;83345;-87
2022/08/09 18:12:12;;;;;;;;;;;33.20;50.90;32.90;99610.00;;;;344704;28;87191;-86
2022/08/09 18:12:29;;;;;;;;;;;33.20;51.10;32.80;99614.00;;;;345777;28;83416;-86
2022/08/09 18:13:01;;;;;;;;;;;33.20;51.00;32.80;99611.00;;;;348259;27;87175;-86
2022/08/09 18:13:33;;;;;;;;;;;33.10;50.90;32.90;99616.00;;;;346967;28;83517;-86
2022/08/09 18:13:51;;;;;;;;;;;33.10;51.10;32.90;99610.00;;;;345562;28;84713;-86
2022/08/09 18:14:11;;;;;;;;;;;33.10;50.90;32.90;99615.00;;;;347233;27;83486;-85
2022/08/09 18:14:26;;;;;;;;;;;33.10;51.00;32.80;99611.00;;;;346874;27;85067;-85
2022/08/09 18:14:38;;;;;;;;;;;33.10;51.40;32.80;99620.00;;;;347018;28;82333;-84
2022/08/09 18:15:00;;;;;;;;;;;33.10;51.10;32.70;99607.00;;;;346989;28;85253;-86
2022/08/09 18:15:15;;;;;;;;;;;33.10;51.10;32.80;99612.00;;;;346244;27;83687;-86
2022/08/09 18:15:26;;;;;;;;;;;33.10;51.10;32.70;99608.00;;;;345524;28;85049;-85
2022/08/09 18:15:58;;;;;;;;;;;33.00;51.00;32.70;99612.00;;;;346475;28;82560;-86
2022/08/09 18:16:19;;;;;;;;;;;33.00;51.20;32.70;99618.00;;;;346969;27;85163;-86
2022/08/09 18:16:41;;;;;;;;;;;33.00;51.10;32.70;99611.00;;;;347064;28;82520;-86
2022/08/09 18:17:00;;;;;;;;;;;33.00;51.10;32.60;99612.00;;;;346711;28;88029;-86
2022/08/09 18:17:14;;;;;;;;;;;33.00;51.10;32.60;99614.00;;;;347313;27;83195;-86
2022/08/09 18:17:38;;;;;;;;;;;33.00;51.20;32.60;99612.00;;;;348352;27;84122;-86
2022/08/09 18:18:10;;;;;;;;;;;32.90;51.10;32.70;99611.00;;;;348440;27;83674;-86
2022/08/09 18:18:36;;;;;;;;;;;32.90;51.30;32.60;99613.00;;;;348319;27;85122;-86
2022/08/09 18:19:00;;;;;;;;;;;32.90;51.50;32.60;99615.00;;;;346976;28;83537;-85
2022/08/09 18:19:29;;;;;;;;;;;32.90;51.40;32.60;99617.00;;;;347131;27;84538;-85
2022/08/09 18:20:01;;;;;;;;;;;32.90;51.30;32.60;99616.00;;;;346927;28;83510;-86
2022/08/09 18:20:32;;;;;;;;;;;32.90;51.40;32.60;99619.00;;;;346765;28;87915;-86
2022/08/09 18:21:04;;;;;;;;;;;32.80;51.20;32.60;99620.00;;;;348237;27;83566;-86
2022/08/09 18:21:33;;;;;;;;;;;32.80;51.30;32.50;99617.00;;;;345219;28;85059;-86
2022/08/09 18:21:52;;;;;;;;;;;32.80;51.90;32.50;99612.00;;;;343203;28;83152;-86
2022/08/09 18:22:04;;;;;;;;;;;32.80;51.40;32.50;99617.00;;;;343597;28;85590;-86
2022/08/09 18:22:16;;;;;;;;;;;32.80;51.30;32.50;99615.00;;;;344818;28;83492;-86
2022/08/09 18:22:29;;;;;;;;;;;32.80;51.40;32.50;99609.00;;;;344712;28;85385;-87
2022/08/09 18:22:44;;;;;;;;;;;32.80;51.30;32.50;99615.00;;;;343369;28;83366;-85
2022/08/09 18:23:02;;;;;;;;;;;32.80;51.30;32.50;99614.00;;;;342994;28;86877;-87
2022/08/09 18:23:16;;;;;;;;;;;32.80;51.40;32.50;99619.00;;;;344577;28;83508;-86
2022/08/09 18:23:48;;;;;;;;;;;32.80;51.20;32.50;99614.00;;;;344651;28;87509;-87
2022/08/09 18:24:20;;;;;;;;;;;32.80;51.30;32.50;99613.00;;;;346086;28;83458;-86
2022/08/09 18:24:38;;;;;;;;;;;32.80;51.40;32.50;99623.00;;;;345608;28;86377;-86
2022/08/09 18:24:49;;;;;;;;;;;32.70;51.40;32.50;99612.00;;;;346162;28;83277;-86
2022/08/09 18:25:02;;;;;;;;;;;32.70;51.40;32.50;99614.00;;;;345808;28;88233;-85
2022/08/09 18:25:16;;;;;;;;;;;32.70;51.50;32.40;99618.00;;;;344780;28;82423;-86
2022/08/09 18:25:30;;;;;;;;;;;32.70;51.60;32.50;99615.00;;;;345008;28;86246;-86
2022/08/09 18:26:01;;;;;;;;;;;32.70;51.60;32.50;99627.00;;;;345105;28;83506;-86
2022/08/09 18:26:13;;;;;;;;;;;32.70;51.30;32.50;99622.00;;;;346197;28;86291;-86
2022/08/09 18:26:25;;;;;;;;;;;32.70;51.30;32.50;99617.00;;;;345226;28;83590;-86
2022/08/09 18:26:38;;;;;;;;;;;32.70;51.70;32.50;99619.00;;;;345875;28;86671;-86
2022/08/09 18:26:58;;;;;;;;;;;32.70;51.80;32.40;99617.00;;;;348384;27;82516;-86
2022/08/09 18:27:13;;;;;;;;;;;32.70;51.60;32.40;99619.00;;;;347600;27;84801;-86
2022/08/09 18:27:47;;;;;;;;;;;32.70;51.70;32.50;99618.00;;;;345451;28;83428;-86
2022/08/09 18:28:16;;;;;;;;;;;32.60;51.50;32.30;99620.00;;;;344554;28;88275;-86
2022/08/09 18:28:48;;;;;;;;;;;32.60;51.30;32.40;99624.00;;;;346312;28;83634;-87
2022/08/09 18:29:19;;;;;;;;;;;32.60;51.60;32.40;99620.00;;;;346294;28;87520;-86
2022/08/09 18:29:51;;;;;;;;;;;32.60;51.40;32.40;99621.00;;;;346074;28;83459;-86
2022/08/09 18:30:23;;;;;;;;;;;32.60;51.60;32.40;99618.00;;;;348174;27;87066;-87
2022/08/09 18:30:56;;;;;;;;;;;32.60;51.40;32.30;99625.00;;;;347122;27;83559;-85
2022/08/09 18:31:08;;;;;;;;;;;32.50;51.80;32.30;99626.00;;;;346764;28;85014;-86
2022/08/09 18:31:20;;;;;;;;;;;32.50;51.70;32.30;99621.00;;;;344715;28;83266;-86
2022/08/09 18:31:52;;;;;;;;;;;32.50;51.60;32.30;99622.00;;;;344876;28;86480;-86
2022/08/09 18:32:07;;;;;;;;;;;32.50;51.40;32.30;99625.00;;;;343630;28;83383;-86
2022/08/09 18:32:20;;;;;;;;;;;32.50;51.50;32.30;99614.00;;;;347337;28;88347;-86
2022/08/09 18:32:32;;;;;;;;;;;32.50;51.60;32.30;99611.00;;;;347420;28;83357;-86
2022/08/09 18:32:44;;;;;;;;;;;32.50;51.60;32.40;99620.00;;;;344626;28;84670;-86
2022/08/09 18:33:04;;;;;;;;;;;32.50;51.60;32.40;99622.00;;;;345204;28;84812;-86
2022/08/09 18:33:24;;;;;;;;;;;32.50;51.60;32.30;99619.00;;;;344576;28;86298;-86
2022/08/09 18:33:39;;;;;;;;;;;32.50;51.70;32.20;99618.00;;;;344040;28;83321;-86
2022/08/09 18:33:51;;;;;;;;;;;32.50;51.60;32.20;99631.00;;;;346665;28;87098;-87
2022/08/09 18:34:04;;;;;;;;;;;32.50;51.50;32.20;99620.00;;;;344649;28;83352;-85
2022/08/09 18:34:16;;;;;;;;;;;32.40;51.50;32.30;99619.00;;;;345969;28;84939;-86
2022/08/09 18:34:33;;;;;;;;;;;32.40;51.40;32.20;99620.00;;;;344458;28;83412;-86
2022/08/09 18:34:45;;;;;;;;;;;32.40;51.50;32.30;99625.00;;;;344525;28;86245;-87
2022/08/09 18:34:58;;;;;;;;;;;32.50;51.50;32.20;99618.00;;;;344704;28;83451;-87
2022/08/09 18:35:10;;;;;;;;;;;32.40;51.50;32.20;99623.00;;;;344116;28;84829;-87
2022/08/09 18:35:22;;;;;;;;;;;32.50;51.60;32.20;99621.00;;;;346083;28;82436;-86
2022/08/09 18:35:55;;;;;;;;;;;32.40;51.50;32.10;99616.00;;;;344377;28;86139;-86
2022/08/09 18:36:11;;;;;;;;;;;32.50;51.80;32.20;99624.00;;;;345656;28;82364;-86
2022/08/09 18:36:36;;;;;;;;;;;32.40;51.80;32.30;99619.00;;;;344902;28;84369;-86
2022/08/09 18:36:48;;;;;;;;;;;32.40;51.50;32.30;99619.00;;;;344641;28;83464;-86
2022/08/09 18:37:01;;;;;;;;;;;32.40;51.50;32.30;99623.00;;;;345726;28;86141;-87
2022/08/09 18:37:14;;;;;;;;;;;32.40;51.60;32.30;99624.00;;;;347421;28;83639;-86
2022/08/09 18:37:45;;;;;;;;;;;32.40;51.60;32.20;99626.00;;;;345815;28;87339;-87
2022/08/09 18:38:05;;;;;;;;;;;32.40;51.80;32.20;99621.00;;;;345972;28;82533;-86
2022/08/09 18:38:19;;;;;;;;;;;32.40;51.60;32.20;99626.00;;;;345963;28;86537;-87
2022/08/09 18:38:33;;;;;;;;;;;32.40;51.50;32.20;99630.00;;;;345579;28;83503;-86
2022/08/09 18:38:45;;;;;;;;;;;32.40;51.50;32.20;99625.00;;;;344523;28;86927;-87
2022/08/09 18:39:00;;;;;;;;;;;32.40;51.90;32.20;99621.00;;;;344316;28;83350;-86
2022/08/09 18:39:13;;;;;;;;;;;32.40;52.30;32.20;99628.00;;;;345868;28;84746;-86
2022/08/09 18:39:27;;;;;;;;;;;32.30;52.20;32.10;99624.00;;;;346899;28;83266;-87
2022/08/09 18:39:44;;;;;;;;;;;32.40;52.00;32.20;99623.00;;;;347369;28;88291;-86
2022/08/09 18:39:59;;;;;;;;;;;32.30;51.90;32.20;99620.00;;;;348309;27;83603;-86
2022/08/09 18:40:10;;;;;;;;;;;32.30;51.70;32.30;99624.00;;;;348627;27;87621;-86
2022/08/09 18:40:23;;;;;;;;;;;32.30;51.70;32.10;99617.00;;;;347424;28;83506;-87
2022/08/09 18:40:38;;;;;;;;;;;32.30;51.70;32.20;99619.00;;;;344548;28;84835;-86